sensor_id;sensor_type;location;lat;lon;timestamp;pressure;altitude;pressure_sealevel;temperature;humidity
78182;BME280;67441;50.116;8.696;2023-04-25T00:00:13;99562.66;;;8.54;78.19
78182;BME280;67441;50.116;8.696;2023-04-25T00:00:40;99667.94;;;9.06;78.30
78182;BME280;67441;50.116;8.696;2023-04-25T00:01:06;99557.25;;;8.36;78.21
78182;BME280;67441;50.116;8.696;2023-04-25T00:01:35;99630.13;;;8.75;78.59
78182;BME280;67441;50.116;8.696;2023-04-25T00:02:01;99567.69;;;8.31;79.29
78182;BME280;67441;50.116;8.696;2023-04-25T00:02:28;99630.16;;;8.81;78.96
78182;BME280;67441;50.116;8.696;2023-04-25T00:02:54;99573.03;;;8.39;78.92
78182;BME280;67441;50.116;8.696;2023-04-25T00:03:25;99669.66;;;9.01;78.54
78182;BME280;67441;50.116;8.696;2023-04-25T00:03:53;99671.38;;;8.96;78.61
78182;BME280;67441;50.116;8.696;2023-04-25T00:04:24;99630.94;;;8.69;78.83
78182;BME280;67441;50.116;8.696;2023-04-25T00:04:53;99611.59;;;8.50;79.34
78182;BME280;67441;50.116;8.696;2023-04-25T00:05:23;99631.84;;;8.70;79.23
78182;BME280;67441;50.116;8.696;2023-04-25T00:05:50;99631.88;;;8.76;79.39
78182;BME280;67441;50.116;8.696;2023-04-25T00:06:17;99658.25;;;8.96;79.16
78182;BME280;67441;50.116;8.696;2023-04-25T00:06:48;99579.19;;;8.42;78.07
78182;BME280;67441;50.116;8.696;2023-04-25T00:07:16;99666.06;;;8.90;79.24
78182;BME280;67441;50.116;8.696;2023-04-25T00:07:42;99667.88;;;8.97;78.76
78182;BME280;67441;50.116;8.696;2023-04-25T00:08:17;99668.75;;;8.96;77.74
78182;BME280;67441;50.116;8.696;2023-04-25T00:08:55;99652.88;;;8.79;78.41
78182;BME280;67441;50.116;8.696;2023-04-25T00:09:22;99638.84;;;8.72;78.66
78182;BME280;67441;50.116;8.696;2023-04-25T00:09:48;99674.03;;;8.97;78.52
78182;BME280;67441;50.116;8.696;2023-04-25T00:10:14;99672.25;;;8.99;78.44
78182;BME280;67441;50.116;8.696;2023-04-25T00:10:42;99669.59;;;8.90;78.70
78182;BME280;67441;50.116;8.696;2023-04-25T00:11:08;99680.06;;;8.89;78.75
78182;BME280;67441;50.116;8.696;2023-04-25T00:11:36;99628.25;;;8.57;78.84
78182;BME280;67441;50.116;8.696;2023-04-25T00:12:02;99639.63;;;8.62;79.49
78182;BME280;67441;50.116;8.696;2023-04-25T00:12:28;99648.41;;;8.66;78.92
78182;BME280;67441;50.116;8.696;2023-04-25T00:12:54;99665.25;;;8.94;78.68
78182;BME280;67441;50.116;8.696;2023-04-25T00:13:23;99668.72;;;8.93;78.97
78182;BME280;67441;50.116;8.696;2023-04-25T00:13:51;99637.94;;;8.67;79.04
78182;BME280;67441;50.116;8.696;2023-04-25T00:14:17;99586.19;;;8.43;79.07
78182;BME280;67441;50.116;8.696;2023-04-25T00:14:43;99627.38;;;8.56;78.56
78182;BME280;67441;50.116;8.696;2023-04-25T00:15:11;99567.59;;;8.20;79.05
78182;BME280;67441;50.116;8.696;2023-04-25T00:15:40;99611.53;;;8.44;78.81
78182;BME280;67441;50.116;8.696;2023-04-25T00:16:23;99620.31;;;8.46;78.90
78182;BME280;67441;50.116;8.696;2023-04-25T00:17:01;99594.75;;;8.25;79.27
78182;BME280;67441;50.116;8.696;2023-04-25T00:17:28;99573.69;;;8.16;78.51
78182;BME280;67441;50.116;8.696;2023-04-25T00:17:56;99675.53;;;8.66;79.28
78182;BME280;67441;50.116;8.696;2023-04-25T00:18:42;99569.13;;;7.91;79.04
78182;BME280;67441;50.116;8.696;2023-04-25T00:19:31;99628.78;;;8.18;80.14
78182;BME280;67441;50.116;8.696;2023-04-25T00:20:25;99595.41;;;8.03;80.34
78182;BME280;67441;50.116;8.696;2023-04-25T00:21:02;99673.63;;;8.47;80.54
78182;BME280;67441;50.116;8.696;2023-04-25T00:21:40;99671.97;;;8.56;80.60
78182;BME280;67441;50.116;8.696;2023-04-25T00:22:15;99679.88;;;8.61;80.21
78182;BME280;67441;50.116;8.696;2023-04-25T00:22:59;99618.38;;;8.28;80.25
78182;BME280;67441;50.116;8.696;2023-04-25T00:23:28;99582.41;;;8.12;79.96
78182;BME280;67441;50.116;8.696;2023-04-25T00:23:56;99680.75;;;8.62;79.84
78182;BME280;67441;50.116;8.696;2023-04-25T00:24:27;99679.88;;;8.66;80.24
78182;BME280;67441;50.116;8.696;2023-04-25T00:24:52;99583.22;;;8.06;79.80
78182;BME280;67441;50.116;8.696;2023-04-25T00:25:18;99649.78;;;8.22;80.44
78182;BME280;67441;50.116;8.696;2023-04-25T00:25:50;99603.28;;;8.01;80.52
78182;BME280;67441;50.116;8.696;2023-04-25T00:26:16;99630.56;;;8.23;80.17
78182;BME280;67441;50.116;8.696;2023-04-25T00:26:41;99687.69;;;8.55;80.44
78182;BME280;67441;50.116;8.696;2023-04-25T00:27:08;99675.41;;;8.49;80.54
78182;BME280;67441;50.116;8.696;2023-04-25T00:27:34;99622.66;;;8.19;80.19
78182;BME280;67441;50.116;8.696;2023-04-25T00:28:03;99619.22;;;8.24;79.98
78182;BME280;67441;50.116;8.696;2023-04-25T00:28:28;99653.47;;;8.40;79.84
78182;BME280;67441;50.116;8.696;2023-04-25T00:28:54;99678.13;;;8.60;80.35
78182;BME280;67441;50.116;8.696;2023-04-25T00:29:21;99636.88;;;8.44;79.87
78182;BME280;67441;50.116;8.696;2023-04-25T00:29:47;99606.06;;;8.18;79.80
78182;BME280;67441;50.116;8.696;2023-04-25T00:30:15;99642.13;;;8.42;79.75
78182;BME280;67441;50.116;8.696;2023-04-25T00:30:42;99632.56;;;8.49;79.80
78182;BME280;67441;50.116;8.696;2023-04-25T00:31:23;99610.53;;;8.34;79.92
78182;BME280;67441;50.116;8.696;2023-04-25T00:32:02;99673.91;;;8.80;79.55
78182;BME280;67441;50.116;8.696;2023-04-25T00:32:30;99677.38;;;8.76;79.96
78182;BME280;67441;50.116;8.696;2023-04-25T00:33:19;99578.16;;;8.31;80.02
78182;BME280;67441;50.116;8.696;2023-04-25T00:33:51;99673.09;;;8.92;79.38
78182;BME280;67441;50.116;8.696;2023-04-25T00:34:25;99674.84;;;8.92;79.23
78182;BME280;67441;50.116;8.696;2023-04-25T00:35:33;99636.00;;;8.43;79.62
78182;BME280;67441;50.116;8.696;2023-04-25T00:36:13;99631.75;;;8.56;79.81
78182;BME280;67441;50.116;8.696;2023-04-25T00:37:16;99658.97;;;8.70;79.49
78182;BME280;67441;50.116;8.696;2023-04-25T00:38:16;99614.19;;;8.47;79.09
78182;BME280;67441;50.116;8.696;2023-04-25T00:38:45;99680.06;;;8.89;79.37
78182;BME280;67441;50.116;8.696;2023-04-25T00:39:17;99589.66;;;8.41;78.88
78182;BME280;67441;50.116;8.696;2023-04-25T00:39:46;99574.69;;;8.30;79.28
78182;BME280;67441;50.116;8.696;2023-04-25T00:40:20;99587.00;;;8.38;79.12
78182;BME280;67441;50.116;8.696;2023-04-25T00:41:35;99655.53;;;8.80;79.26
78182;BME280;67441;50.116;8.696;2023-04-25T00:42:08;99686.22;;;8.91;78.80
78182;BME280;67441;50.116;8.696;2023-04-25T00:42:47;99670.34;;;8.74;79.74
78182;BME280;67441;50.116;8.696;2023-04-25T00:43:34;99682.53;;;8.69;79.72
78182;BME280;67441;50.116;8.696;2023-04-25T00:44:15;99621.75;;;8.15;80.31
78182;BME280;67441;50.116;8.696;2023-04-25T00:46:05;99571.75;;;7.92;80.47
78182;BME280;67441;50.116;8.696;2023-04-25T00:46:36;99585.75;;;7.94;80.63
78182;BME280;67441;50.116;8.696;2023-04-25T00:47:03;99576.19;;;8.01;80.75
78182;BME280;67441;50.116;8.696;2023-04-25T00:47:42;99637.78;;;8.46;80.94
78182;BME280;67441;50.116;8.696;2023-04-25T00:48:49;99611.50;;;8.41;80.47
78182;BME280;67441;50.116;8.696;2023-04-25T00:49:24;99574.66;;;8.26;79.89
78182;BME280;67441;50.116;8.696;2023-04-25T00:50:10;99576.47;;;8.36;79.56
78182;BME280;67441;50.116;8.696;2023-04-25T00:50:44;99674.88;;;8.99;79.72
78182;BME280;67441;50.116;8.696;2023-04-25T00:51:19;99655.63;;;8.99;78.78
78182;BME280;67441;50.116;8.696;2023-04-25T00:51:52;99627.53;;;8.81;79.44
78182;BME280;67441;50.116;8.696;2023-04-25T00:52:19;99559.84;;;8.32;79.13
78182;BME280;67441;50.116;8.696;2023-04-25T00:52:45;99568.69;;;8.44;78.86
78182;BME280;67441;50.116;8.696;2023-04-25T00:53:14;99630.19;;;8.84;79.00
78182;BME280;67441;50.116;8.696;2023-04-25T00:53:43;99674.09;;;9.11;79.11
78182;BME280;67441;50.116;8.696;2023-04-25T00:54:14;99573.16;;;8.57;79.00
78182;BME280;67441;50.116;8.696;2023-04-25T00:54:46;99637.25;;;8.94;79.31
78182;BME280;67441;50.116;8.696;2023-04-25T00:55:13;99559.06;;;8.44;78.98
78182;BME280;67441;50.116;8.696;2023-04-25T00:56:01;99663.47;;;8.93;79.63
78182;BME280;67441;50.116;8.696;2023-04-25T00:57:59;99629.28;;;8.80;79.53
78182;BME280;67441;50.116;8.696;2023-04-25T00:59:42;99576.59;;;8.48;79.25
78182;BME280;67441;50.116;8.696;2023-04-25T01:00:19;99580.97;;;8.48;78.97
78182;BME280;67441;50.116;8.696;2023-04-25T01:01:09;99666.91;;;8.86;79.89
78182;BME280;67441;50.116;8.696;2023-04-25T01:01:54;99666.06;;;8.85;79.63
78182;BME280;67441;50.116;8.696;2023-04-25T01:02:32;99635.25;;;8.56;80.02
78182;BME280;67441;50.116;8.696;2023-04-25T01:03:21;99566.78;;;8.27;80.27
78182;BME280;67441;50.116;8.696;2023-04-25T01:04:31;99669.56;;;8.89;80.05
78182;BME280;67441;50.116;8.696;2023-04-25T01:05:16;99580.03;;;8.40;79.89
78182;BME280;67441;50.116;8.696;2023-04-25T01:07:19;99609.88;;;8.57;80.39
78182;BME280;67441;50.116;8.696;2023-04-25T01:07:54;99573.72;;;8.19;80.58
78182;BME280;67441;50.116;8.696;2023-04-25T01:09:55;99663.31;;;8.68;81.29
78182;BME280;67441;50.116;8.696;2023-04-25T01:11:56;99673.84;;;8.73;81.62
78182;BME280;67441;50.116;8.696;2023-04-25T01:12:30;99615.91;;;8.44;81.02
78182;BME280;67441;50.116;8.696;2023-04-25T01:13:02;99565.88;;;8.22;81.25
78182;BME280;67441;50.116;8.696;2023-04-25T01:14:12;99666.03;;;8.87;80.82
78182;BME280;67441;50.116;8.696;2023-04-25T01:14:53;99655.63;;;8.99;80.69
78182;BME280;67441;50.116;8.696;2023-04-25T01:15:53;99654.72;;;8.92;80.27
78182;BME280;67441;50.116;8.696;2023-04-25T01:18:42;99593.34;;;8.69;79.84
78182;BME280;67441;50.116;8.696;2023-04-25T01:22:21;99564.38;;;8.49;78.42
78182;BME280;67441;50.116;8.696;2023-04-25T01:23:13;99604.69;;;8.63;78.56
78182;BME280;67441;50.116;8.696;2023-04-25T01:24:59;99660.94;;;9.10;78.56
78182;BME280;67441;50.116;8.696;2023-04-25T01:25:37;99596.03;;;8.76;77.73
78182;BME280;67441;50.116;8.696;2023-04-25T01:26:16;99609.16;;;8.81;77.24
78182;BME280;67441;50.116;8.696;2023-04-25T01:27:13;99533.75;;;8.48;77.48
78182;BME280;67441;50.116;8.696;2023-04-25T01:28:11;99612.72;;;8.92;75.49
78182;BME280;67441;50.116;8.696;2023-04-25T01:29:16;99596.03;;;8.79;75.15
78182;BME280;67441;50.116;8.696;2023-04-25T01:30:12;99553.06;;;8.56;75.24
78182;BME280;67441;50.116;8.696;2023-04-25T01:30:50;99650.41;;;8.97;75.05
78182;BME280;67441;50.116;8.696;2023-04-25T01:32:15;99559.16;;;8.56;75.46
78182;BME280;67441;50.116;8.696;2023-04-25T01:33:16;99617.13;;;8.96;75.31
78182;BME280;67441;50.116;8.696;2023-04-25T01:34:39;99652.25;;;9.18;75.10
78182;BME280;67441;50.116;8.696;2023-04-25T01:35:13;99659.25;;;9.19;75.59
78182;BME280;67441;50.116;8.696;2023-04-25T01:36:24;99654.00;;;9.16;75.21
78182;BME280;67441;50.116;8.696;2023-04-25T01:37:10;99603.06;;;8.85;74.50
78182;BME280;67441;50.116;8.696;2023-04-25T01:37:41;99596.06;;;8.81;75.17
78182;BME280;67441;50.116;8.696;2023-04-25T01:40:59;99627.63;;;8.96;75.63
78182;BME280;67441;50.116;8.696;2023-04-25T01:41:34;99665.38;;;9.15;75.50
78182;BME280;67441;50.116;8.696;2023-04-25T01:42:51;99569.69;;;8.61;75.04
78182;BME280;67441;50.116;8.696;2023-04-25T01:54:57;99661.97;;;9.41;72.12
78182;BME280;67441;50.116;8.696;2023-04-25T01:58:29;99589.09;;;8.88;71.41
78182;BME280;67441;50.116;8.696;2023-04-25T02:04:06;99668.03;;;9.27;70.55
78182;BME280;67441;50.116;8.696;2023-04-25T02:06:57;99679.41;;;9.28;70.23
78182;BME280;67441;50.116;8.696;2023-04-25T02:10:19;99668.91;;;9.23;70.49
78182;BME280;67441;50.116;8.696;2023-04-25T02:11:31;99583.75;;;8.75;70.67
78182;BME280;67441;50.116;8.696;2023-04-25T02:12:11;99650.47;;;9.11;70.45
78182;BME280;67441;50.116;8.696;2023-04-25T02:13:45;99672.41;;;9.27;70.31
78182;BME280;67441;50.116;8.696;2023-04-25T02:14:19;99634.63;;;9.00;70.02
78182;BME280;67441;50.116;8.696;2023-04-25T02:15:07;99661.03;;;9.22;69.33
78182;BME280;67441;50.116;8.696;2023-04-25T02:18:24;99623.25;;;8.95;70.28
78182;BME280;67441;50.116;8.696;2023-04-25T02:19:03;99668.94;;;9.25;70.40
78182;BME280;67441;50.116;8.696;2023-04-25T02:22:08;99558.38;;;8.71;70.58
78182;BME280;67441;50.116;8.696;2023-04-25T02:25:14;99556.66;;;8.73;70.40
78182;BME280;67441;50.116;8.696;2023-04-25T02:26:23;99650.56;;;9.31;69.92
78182;BME280;67441;50.116;8.696;2023-04-25T02:27:57;99659.25;;;9.16;70.31
78182;BME280;67441;50.116;8.696;2023-04-25T02:28:53;99579.28;;;8.57;71.00
78182;BME280;67441;50.116;8.696;2023-04-25T02:29:49;99656.56;;;9.07;71.22
78182;BME280;67441;50.116;8.696;2023-04-25T02:30:43;99662.69;;;9.06;71.46
78182;BME280;67441;50.116;8.696;2023-04-25T02:31:23;99652.22;;;9.14;71.49
78182;BME280;67441;50.116;8.696;2023-04-25T02:32:05;99653.09;;;9.11;71.88
78182;BME280;67441;50.116;8.696;2023-04-25T02:32:39;99633.78;;;8.98;72.05
78182;BME280;67441;50.116;8.696;2023-04-25T02:33:20;99539.88;;;8.51;72.16
78182;BME280;67441;50.116;8.696;2023-04-25T02:34:05;99568.00;;;8.72;72.30
78182;BME280;67441;50.116;8.696;2023-04-25T02:35:34;99558.28;;;8.54;73.01
78182;BME280;67441;50.116;8.696;2023-04-25T02:36:25;99563.56;;;8.61;73.12
78182;BME280;67441;50.116;8.696;2023-04-25T02:36:54;99655.72;;;9.11;73.84
78182;BME280;67441;50.116;8.696;2023-04-25T02:37:39;99556.56;;;8.61;73.43
78182;BME280;67441;50.116;8.696;2023-04-25T02:38:06;99654.00;;;9.19;73.38
78182;BME280;67441;50.116;8.696;2023-04-25T02:38:43;99593.41;;;8.82;73.40
78182;BME280;67441;50.116;8.696;2023-04-25T02:39:10;99600.47;;;8.88;73.71
78182;BME280;67441;50.116;8.696;2023-04-25T02:39:43;99661.00;;;9.19;73.58
78182;BME280;67441;50.116;8.696;2023-04-25T02:40:18;99662.78;;;9.21;73.47
78182;BME280;67441;50.116;8.696;2023-04-25T02:40:53;99564.47;;;8.67;73.41
78182;BME280;67441;50.116;8.696;2023-04-25T02:41:38;99594.28;;;8.83;73.23
78182;BME280;67441;50.116;8.696;2023-04-25T02:42:13;99647.72;;;8.91;73.86
78182;BME280;67441;50.116;8.696;2023-04-25T02:44:46;99643.44;;;9.07;73.85
78182;BME280;67441;50.116;8.696;2023-04-25T02:45:40;99603.03;;;8.77;73.90
78182;BME280;67441;50.116;8.696;2023-04-25T02:46:59;99594.25;;;8.75;73.67
78182;BME280;67441;50.116;8.696;2023-04-25T02:48:05;99607.41;;;8.81;73.56
78182;BME280;67441;50.116;8.696;2023-04-25T02:48:49;99598.69;;;8.81;73.36
78182;BME280;67441;50.116;8.696;2023-04-25T02:49:35;99592.56;;;8.80;73.37
78182;BME280;67441;50.116;8.696;2023-04-25T02:50:15;99652.25;;;9.17;72.59
78182;BME280;67441;50.116;8.696;2023-04-25T02:51:04;99660.13;;;9.20;72.26
78182;BME280;67441;50.116;8.696;2023-04-25T02:52:29;99655.72;;;9.14;72.89
78182;BME280;67441;50.116;8.696;2023-04-25T02:53:16;99635.53;;;9.02;73.04
78182;BME280;67441;50.116;8.696;2023-04-25T02:53:54;99643.47;;;9.13;72.62
78182;BME280;67441;50.116;8.696;2023-04-25T02:54:33;99646.06;;;9.04;72.66
78182;BME280;67441;50.116;8.696;2023-04-25T02:55:07;99658.34;;;9.08;72.12
78182;BME280;67441;50.116;8.696;2023-04-25T02:55:43;99624.91;;;8.81;72.13
78182;BME280;67441;50.116;8.696;2023-04-25T02:56:21;99653.91;;;9.02;72.11
78182;BME280;67441;50.116;8.696;2023-04-25T02:56:59;99654.81;;;9.04;72.24
78182;BME280;67441;50.116;8.696;2023-04-25T02:58:44;99654.81;;;9.09;72.09
78182;BME280;67441;50.116;8.696;2023-04-25T02:59:24;99621.47;;;8.91;72.05
78182;BME280;67441;50.116;8.696;2023-04-25T02:59:56;99618.00;;;8.94;71.99
78182;BME280;67441;50.116;8.696;2023-04-25T03:00:47;99651.34;;;9.12;71.59
78182;BME280;67441;50.116;8.696;2023-04-25T03:01:20;99559.13;;;8.52;72.17
78182;BME280;67441;50.116;8.696;2023-04-25T03:03:04;99618.88;;;8.96;71.76
78182;BME280;67441;50.116;8.696;2023-04-25T03:04:44;99614.38;;;8.79;71.92
78182;BME280;67441;50.116;8.696;2023-04-25T03:05:13;99595.09;;;8.68;71.87
78182;BME280;67441;50.116;8.696;2023-04-25T03:05:41;99648.63;;;8.96;72.04
78182;BME280;67441;50.116;8.696;2023-04-25T03:06:10;99550.38;;;8.50;71.81
78182;BME280;67441;50.116;8.696;2023-04-25T03:06:51;99605.66;;;8.79;71.90
78182;BME280;67441;50.116;8.696;2023-04-25T03:08:23;99658.28;;;9.03;71.69
78182;BME280;67441;50.116;8.696;2023-04-25T03:09:11;99601.19;;;8.63;71.98
78182;BME280;67441;50.116;8.696;2023-04-25T03:10:59;99549.44;;;8.39;71.71
78182;BME280;67441;50.116;8.696;2023-04-25T03:11:31;99653.91;;;9.01;71.82
78182;BME280;67441;50.116;8.696;2023-04-25T03:13:42;99643.41;;;9.01;71.68
78182;BME280;67441;50.116;8.696;2023-04-25T03:14:33;99563.47;;;8.48;71.72
78182;BME280;67441;50.116;8.696;2023-04-25T03:16:47;99610.03;;;8.77;71.68
78182;BME280;67441;50.116;8.696;2023-04-25T03:17:29;99558.25;;;8.50;72.05
78182;BME280;67441;50.116;8.696;2023-04-25T03:17:58;99659.09;;;8.93;71.74
78182;BME280;67441;50.116;8.696;2023-04-25T03:18:35;99556.38;;;8.35;72.30
78182;BME280;67441;50.116;8.696;2023-04-25T03:19:19;99534.34;;;8.13;72.15
78182;BME280;67441;50.116;8.696;2023-04-25T03:19:57;99646.78;;;8.81;72.30
78182;BME280;67441;50.116;8.696;2023-04-25T03:20:36;99588.78;;;8.39;72.01
78182;BME280;67441;50.116;8.696;2023-04-25T03:21:47;99652.91;;;8.82;72.24
78182;BME280;67441;50.116;8.696;2023-04-25T03:29:41;99553.72;;;8.29;72.09
78182;BME280;67441;50.116;8.696;2023-04-25T03:37:14;99662.56;;;8.85;73.56
78182;BME280;67441;50.116;8.696;2023-04-25T03:38:41;99614.28;;;8.60;73.42
78182;BME280;67441;50.116;8.696;2023-04-25T03:41:26;99594.13;;;8.52;72.27
78182;BME280;67441;50.116;8.696;2023-04-25T03:42:22;99675.75;;;8.97;72.44
78182;BME280;67441;50.116;8.696;2023-04-25T03:43:06;99642.34;;;8.74;72.70
78182;BME280;67441;50.116;8.696;2023-04-25T03:43:46;99670.50;;;8.95;72.85
78182;BME280;67441;50.116;8.696;2023-04-25T03:44:21;99638.88;;;8.77;72.32
78182;BME280;67441;50.116;8.696;2023-04-25T03:45:16;99585.22;;;8.37;72.20
78182;BME280;67441;50.116;8.696;2023-04-25T03:46:45;99598.38;;;8.41;72.32
78182;BME280;67441;50.116;8.696;2023-04-25T03:47:38;99677.41;;;8.86;72.34
78182;BME280;67441;50.116;8.696;2023-04-25T03:48:16;99669.56;;;8.89;71.94
78182;BME280;67441;50.116;8.696;2023-04-25T03:49:11;99572.09;;;8.33;71.26
78182;BME280;67441;50.116;8.696;2023-04-25T03:50:42;99657.06;;;8.54;72.17
78182;BME280;67441;50.116;8.696;2023-04-25T03:51:35;99584.22;;;8.21;72.40
78182;BME280;67441;50.116;8.696;2023-04-25T03:54:00;99609.78;;;8.42;72.30
78182;BME280;67441;50.116;8.696;2023-04-25T03:55:18;99674.75;;;8.79;71.64
78182;BME280;67441;50.116;8.696;2023-04-25T03:56:27;99617.75;;;8.57;71.59
78182;BME280;67441;50.116;8.696;2023-04-25T03:57:33;99671.31;;;8.88;71.38
78182;BME280;67441;50.116;8.696;2023-04-25T03:58:04;99672.22;;;8.92;71.62
78182;BME280;67441;50.116;8.696;2023-04-25T03:59:18;99673.06;;;8.88;72.07
78182;BME280;67441;50.116;8.696;2023-04-25T04:01:44;99557.97;;;8.16;72.00
78182;BME280;67441;50.116;8.696;2023-04-25T04:03:01;99571.22;;;8.31;72.09
78182;BME280;67441;50.116;8.696;2023-04-25T04:04:01;99678.38;;;8.94;72.01
78182;BME280;67441;50.116;8.696;2023-04-25T04:07:07;99619.56;;;8.64;71.87
78182;BME280;67441;50.116;8.696;2023-04-25T04:08:03;99659.00;;;8.79;72.06
78182;BME280;67441;50.116;8.696;2023-04-25T04:08:45;99681.00;;;8.94;71.96
78182;BME280;67441;50.116;8.696;2023-04-25T04:11:38;99677.50;;;8.95;71.72
78182;BME280;67441;50.116;8.696;2023-04-25T04:13:31;99680.06;;;8.89;71.80
78182;BME280;67441;50.116;8.696;2023-04-25T04:16:26;99642.78;;;8.23;73.49
78182;BME280;67441;50.116;8.696;2023-04-25T04:17:20;99645.44;;;8.27;73.88
78182;BME280;67441;50.116;8.696;2023-04-25T04:18:00;99691.28;;;8.66;73.32
78182;BME280;67441;50.116;8.696;2023-04-25T04:18:37;99642.88;;;8.33;72.94
78182;BME280;67441;50.116;8.696;2023-04-25T04:19:18;99635.09;;;8.41;73.04
78182;BME280;67441;50.116;8.696;2023-04-25T04:20:02;99600.75;;;8.12;72.85
78182;BME280;67441;50.116;8.696;2023-04-25T04:20:31;99659.69;;;8.55;73.28
78182;BME280;67441;50.116;8.696;2023-04-25T04:21:26;99634.25;;;8.42;72.68
78182;BME280;67441;50.116;8.696;2023-04-25T04:22:03;99607.81;;;8.21;72.78
78182;BME280;67441;50.116;8.696;2023-04-25T04:22:37;99696.63;;;8.77;72.75
78182;BME280;67441;50.116;8.696;2023-04-25T04:23:10;99646.56;;;8.49;72.10
78182;BME280;67441;50.116;8.696;2023-04-25T04:23:44;99603.53;;;8.29;72.59
78182;BME280;67441;50.116;8.696;2023-04-25T04:25:00;99698.31;;;8.72;72.44
78182;BME280;67441;50.116;8.696;2023-04-25T04:26:18;99675.41;;;8.51;73.01
78182;BME280;67441;50.116;8.696;2023-04-25T04:26:55;99702.66;;;8.68;72.92
78182;BME280;67441;50.116;8.696;2023-04-25T04:27:32;99705.22;;;8.62;72.80
78182;BME280;67441;50.116;8.696;2023-04-25T04:28:07;99647.25;;;8.33;72.54
78182;BME280;67441;50.116;8.696;2023-04-25T04:28:36;99714.91;;;8.68;72.71
78182;BME280;67441;50.116;8.696;2023-04-25T04:29:15;99659.63;;;8.42;73.05
78182;BME280;67441;50.116;8.696;2023-04-25T04:30:24;99648.16;;;8.37;72.44
78182;BME280;67441;50.116;8.696;2023-04-25T04:30:50;99655.28;;;8.50;72.55
78182;BME280;67441;50.116;8.696;2023-04-25T04:31:17;99700.13;;;8.80;73.04
78182;BME280;67441;50.116;8.696;2023-04-25T04:31:44;99676.41;;;8.68;72.39
78182;BME280;67441;50.116;8.696;2023-04-25T04:32:10;99718.53;;;8.87;72.44
78182;BME280;67441;50.116;8.696;2023-04-25T04:32:36;99666.72;;;8.56;72.43
78182;BME280;67441;50.116;8.696;2023-04-25T04:33:01;99720.16;;;8.69;72.82
78182;BME280;67441;50.116;8.696;2023-04-25T04:33:26;99721.97;;;8.78;71.96
78182;BME280;67441;50.116;8.696;2023-04-25T04:33:52;99722.78;;;8.72;71.55
78182;BME280;67441;50.116;8.696;2023-04-25T04:34:17;99716.72;;;8.76;71.24
78182;BME280;67441;50.116;8.696;2023-04-25T04:34:43;99714.13;;;8.76;72.36
78182;BME280;67441;50.116;8.696;2023-04-25T04:35:08;99689.47;;;8.56;72.26
78182;BME280;67441;50.116;8.696;2023-04-25T04:35:34;99725.47;;;8.78;71.70
78182;BME280;67441;50.116;8.696;2023-04-25T04:36:00;99715.84;;;8.73;71.41
78182;BME280;67441;50.116;8.696;2023-04-25T04:36:26;99722.75;;;8.65;71.85
78182;BME280;67441;50.116;8.696;2023-04-25T04:36:51;99719.25;;;8.63;71.67
78182;BME280;67441;50.116;8.696;2023-04-25T04:37:16;99721.88;;;8.64;72.03
78182;BME280;67441;50.116;8.696;2023-04-25T04:37:42;99722.78;;;8.69;71.89
78182;BME280;67441;50.116;8.696;2023-04-25T04:38:09;99657.66;;;8.24;70.75
78182;BME280;67441;50.116;8.696;2023-04-25T04:38:36;99661.28;;;8.35;70.38
78182;BME280;67441;50.116;8.696;2023-04-25T04:39:01;99721.97;;;8.76;70.08
78182;BME280;67441;50.116;8.696;2023-04-25T04:39:28;99677.19;;;8.55;69.57
78182;BME280;67441;50.116;8.696;2023-04-25T04:39:54;99641.09;;;8.31;69.16
78182;BME280;67441;50.116;8.696;2023-04-25T04:40:19;99678.06;;;8.54;68.74
78182;BME280;67441;50.116;8.696;2023-04-25T04:40:45;99689.56;;;8.70;68.74
78182;BME280;67441;50.116;8.696;2023-04-25T04:41:11;99704.44;;;8.72;68.66
78182;BME280;67441;50.116;8.696;2023-04-25T04:41:36;99722.91;;;8.85;68.38
78182;BME280;67441;50.116;8.696;2023-04-25T04:42:02;99720.25;;;8.81;67.92
78182;BME280;67441;50.116;8.696;2023-04-25T04:42:28;99701.00;;;8.79;68.32
78182;BME280;67441;50.116;8.696;2023-04-25T04:42:54;99722.06;;;8.89;68.01
78182;BME280;67441;50.116;8.696;2023-04-25T04:43:21;99724.69;;;8.89;68.17
78182;BME280;67441;50.116;8.696;2023-04-25T04:43:48;99639.47;;;8.39;68.11
78182;BME280;67441;50.116;8.696;2023-04-25T04:44:13;99727.28;;;8.84;68.27
78182;BME280;67441;50.116;8.696;2023-04-25T04:44:39;99723.78;;;8.87;68.06
78182;BME280;67441;50.116;8.696;2023-04-25T04:45:04;99710.59;;;8.76;67.02
78182;BME280;67441;50.116;8.696;2023-04-25T04:45:30;99727.16;;;8.72;67.23
78182;BME280;67441;50.116;8.696;2023-04-25T04:45:55;99698.97;;;8.46;66.29
78182;BME280;67441;50.116;8.696;2023-04-25T04:46:21;99721.53;;;8.32;66.38
78182;BME280;67441;50.116;8.696;2023-04-25T04:46:47;99714.38;;;8.16;67.19
78182;BME280;67441;50.116;8.696;2023-04-25T04:47:13;99706.38;;;8.00;67.72
78182;BME280;67441;50.116;8.696;2023-04-25T04:47:39;99725.78;;;8.21;67.79
78182;BME280;67441;50.116;8.696;2023-04-25T04:48:06;99726.72;;;8.26;67.97
78182;BME280;67441;50.116;8.696;2023-04-25T04:48:32;99665.25;;;7.95;67.13
78182;BME280;67441;50.116;8.696;2023-04-25T04:49:00;99650.34;;;7.91;67.08
78182;BME280;67441;50.116;8.696;2023-04-25T04:49:25;99721.44;;;8.23;66.94
78182;BME280;67441;50.116;8.696;2023-04-25T04:49:51;99633.50;;;7.66;66.70
78182;BME280;67441;50.116;8.696;2023-04-25T04:50:16;99717.03;;;8.20;66.80
78182;BME280;67441;50.116;8.696;2023-04-25T04:50:44;99724.09;;;8.24;66.63
78182;BME280;67441;50.116;8.696;2023-04-25T04:51:10;99715.09;;;8.02;66.64
78182;BME280;67441;50.116;8.696;2023-04-25T04:51:35;99724.59;;;7.93;67.06
78182;BME280;67441;50.116;8.696;2023-04-25T04:52:01;99725.34;;;7.79;66.98
78182;BME280;67441;50.116;8.696;2023-04-25T04:52:27;99726.78;;;7.56;67.61
78182;BME280;67441;50.116;8.696;2023-04-25T04:52:52;99618.66;;;6.96;67.53
78182;BME280;67441;50.116;8.696;2023-04-25T04:53:17;99736.63;;;7.74;67.77
78182;BME280;67441;50.116;8.696;2023-04-25T04:53:43;99704.13;;;7.59;67.57
78182;BME280;67441;50.116;8.696;2023-04-25T04:54:08;99603.91;;;7.00;66.95
78182;BME280;67441;50.116;8.696;2023-04-25T04:54:34;99733.16;;;7.78;67.00
78182;BME280;67441;50.116;8.696;2023-04-25T04:55:00;99697.28;;;7.72;67.11
78182;BME280;67441;50.116;8.696;2023-04-25T04:55:26;99738.66;;;7.98;66.46